Time;durP1;ratioP1;P1;durP2;ratioP2;P2;SDS_P1;SDS_P2;PMS_P1;PMS_P2;Temp;Humidity;BMP_temperature;BMP_pressure;BME280_temperature;BME280_humidity;BME280_pressure;Samples;Min_cycle;Max_cycle;Signal;HPM_P1;HPM_P2
2021/03/26 00:01:54;;;;;;;74.00;55.97;;;6.90;99.90;;;;;;5012980;28;20483;-87
2021/03/26 00:04:20;;;;;;;70.95;54.15;;;6.90;99.90;;;;;;4995159;28;20419;-86
2021/03/26 00:06:48;;;;;;;78.82;57.33;;;6.90;99.90;;;;;;4995349;28;20418;-84
2021/03/26 00:09:17;;;;;;;80.22;57.42;;;6.80;99.90;;;;;;4994671;28;20387;-86
2021/03/26 00:11:45;;;;;;;75.63;56.75;;;6.80;99.90;;;;;;4994903;28;20394;-86
2021/03/26 00:14:10;;;;;;;74.97;55.80;;;6.80;99.90;;;;;;4994600;28;20406;-86
2021/03/26 00:16:37;;;;;;;76.55;54.67;;;6.70;99.90;;;;;;4994437;28;20375;-86
2021/03/26 00:19:03;;;;;;;81.68;58.60;;;6.70;99.90;;;;;;4994670;28;20383;-84
2021/03/26 00:21:29;;;;;;;86.10;59.97;;;6.70;99.90;;;;;;4994834;28;20448;-87
2021/03/26 00:23:55;;;;;;;80.15;56.88;;;6.60;99.90;;;;;;4994424;28;20390;-86
2021/03/26 00:26:21;;;;;;;86.53;60.00;;;6.60;99.90;;;;;;4994620;28;20384;-87
2021/03/26 00:28:47;;;;;;;77.53;57.25;;;6.50;99.90;;;;;;4994264;28;20881;-88
2021/03/26 00:31:12;;;;;;;82.20;58.67;;;6.50;99.90;;;;;;4994536;28;20394;-86
2021/03/26 00:33:38;;;;;;;81.13;58.60;;;6.50;99.90;;;;;;4994513;28;20403;-88
2021/03/26 00:36:04;;;;;;;85.47;59.53;;;6.60;99.90;;;;;;4994476;28;20423;-86
2021/03/26 00:38:30;;;;;;;87.63;60.73;;;6.50;99.90;;;;;;4993921;28;20478;-87
2021/03/26 00:40:56;;;;;;;83.40;59.27;;;6.50;99.90;;;;;;5011877;28;20502;-86
2021/03/26 00:43:22;;;;;;;79.13;56.20;;;6.50;99.90;;;;;;5011597;28;20737;-86
2021/03/26 00:45:48;;;;;;;74.03;54.40;;;6.50;99.90;;;;;;5011264;28;20371;-88
2021/03/26 00:48:15;;;;;;;74.40;55.53;;;6.50;99.90;;;;;;4994065;28;20907;-87
2021/03/26 00:50:44;;;;;;;87.25;62.25;;;6.50;99.90;;;;;;4994078;28;20387;-86
2021/03/26 00:53:14;;;;;;;84.47;60.17;;;6.50;99.90;;;;;;4993844;28;20387;-85
2021/03/26 00:55:40;;;;;;;89.82;61.85;;;6.50;99.90;;;;;;4993886;28;20387;-85
2021/03/26 00:58:06;;;;;;;74.77;56.90;;;6.50;99.90;;;;;;5011328;28;20490;-86
2021/03/26 01:00:33;;;;;;;79.87;58.67;;;6.50;99.90;;;;;;5011698;28;20969;-87
2021/03/26 01:02:59;;;;;;;79.77;59.30;;;6.50;99.90;;;;;;5011559;28;20843;-88
2021/03/26 01:05:35;;;;;;;77.45;56.70;;;6.60;99.90;;;;;;4994019;28;20390;-85
2021/03/26 01:08:01;;;;;;;78.35;56.97;;;6.50;99.90;;;;;;5011216;28;20387;-83
2021/03/26 01:10:31;;;;;;;78.97;56.17;;;6.60;99.90;;;;;;4994096;28;20478;-88
2021/03/26 01:12:59;;;;;;;77.27;55.77;;;6.60;99.90;;;;;;5011157;28;20387;-86
2021/03/26 01:15:27;;;;;;;69.38;52.80;;;6.70;99.90;;;;;;5011481;28;20391;-84
2021/03/26 01:17:55;;;;;;;85.53;59.87;;;6.80;99.90;;;;;;4993370;28;20750;-83
2021/03/26 01:20:24;;;;;;;78.95;58.13;;;6.80;99.90;;;;;;4993797;28;20437;-85
2021/03/26 01:22:50;;;;;;;78.22;57.45;;;6.80;99.90;;;;;;4993623;28;20383;-85
2021/03/26 01:25:20;;;;;;;77.75;57.28;;;6.80;99.90;;;;;;5011203;28;20385;-85
2021/03/26 01:27:46;;;;;;;77.28;55.42;;;6.90;99.90;;;;;;4993386;28;20483;-84
2021/03/26 01:30:16;;;;;;;76.10;55.47;;;6.90;99.90;;;;;;4993469;28;20512;-88
2021/03/26 01:32:42;;;;;;;79.25;58.13;;;6.90;99.90;;;;;;5010803;28;20425;-85
2021/03/26 01:35:08;;;;;;;78.75;58.60;;;6.90;99.90;;;;;;5011123;28;20909;-86
2021/03/26 01:37:35;;;;;;;84.00;61.25;;;6.90;99.90;;;;;;5010568;28;20399;-83
2021/03/26 01:40:01;;;;;;;74.25;55.67;;;6.90;99.90;;;;;;4993464;28;20368;-86
2021/03/26 01:42:30;;;;;;;82.22;58.08;;;6.90;99.90;;;;;;4993283;28;20388;-83
2021/03/26 01:44:57;;;;;;;72.88;55.08;;;7.00;99.90;;;;;;5010917;28;20378;-86
2021/03/26 01:47:23;;;;;;;79.73;58.03;;;7.00;99.90;;;;;;5010641;28;20426;-85
2021/03/26 01:49:49;;;;;;;71.93;54.13;;;7.00;99.90;;;;;;5011004;28;20827;-84
2021/03/26 01:52:14;;;;;;;74.73;55.70;;;7.00;99.90;;;;;;4993386;28;20429;-86
2021/03/26 01:54:40;;;;;;;77.07;55.50;;;7.00;99.90;;;;;;4993423;28;20769;-87
2021/03/26 01:57:07;;;;;;;69.90;53.80;;;7.10;99.90;;;;;;4993167;28;20399;-87
2021/03/26 01:59:32;;;;;;;74.47;55.25;;;7.00;99.90;;;;;;5011060;28;20480;-86
2021/03/26 02:02:05;;;;;;;75.70;55.77;;;7.00;99.90;;;;;;4993176;28;20383;-84
2021/03/26 02:04:34;;;;;;;77.68;58.17;;;6.90;99.90;;;;;;4993091;28;20476;-87
2021/03/26 02:07:01;;;;;;;83.15;60.53;;;6.90;99.90;;;;;;4992877;28;20383;-87
2021/03/26 02:09:35;;;;;;;92.65;65.38;;;6.90;99.90;;;;;;4993177;28;20387;-84
2021/03/26 02:12:07;;;;;;;90.10;66.00;;;6.80;99.90;;;;;;4993151;28;20379;-85
2021/03/26 02:14:41;;;;;;;92.60;65.72;;;6.70;99.90;;;;;;4993330;28;20410;-83
2021/03/26 02:17:09;;;;;;;86.28;61.60;;;6.70;99.90;;;;;;4993109;28;21175;-87
2021/03/26 02:19:49;;;;;;;91.37;63.57;;;6.60;99.90;;;;;;4993183;28;20408;-86
2021/03/26 02:22:16;;;;;;;85.28;62.45;;;6.60;99.90;;;;;;4993257;28;20905;-86
2021/03/26 02:24:44;;;;;;;96.00;67.40;;;6.60;99.90;;;;;;5010573;28;20387;-89
2021/03/26 02:27:24;;;;;;;89.90;64.40;;;6.60;99.90;;;;;;4993121;28;20487;-85
2021/03/26 02:29:52;;;;;;;96.20;67.07;;;6.60;99.90;;;;;;5010627;28;20387;-85
2021/03/26 02:32:23;;;;;;;89.85;64.82;;;6.50;99.90;;;;;;5010759;28;20379;-87
2021/03/26 02:35:10;;;;;;;78.85;57.15;;;6.50;99.90;;;;;;5010672;28;20379;-89
2021/03/26 02:37:37;;;;;;;79.27;58.30;;;6.50;99.90;;;;;;5010410;28;20395;-87
2021/03/26 02:40:07;;;;;;;83.43;60.58;;;6.50;99.90;;;;;;4993377;28;20952;-87
2021/03/26 02:42:33;;;;;;;93.25;63.85;;;6.50;99.90;;;;;;4992437;28;20398;-86
2021/03/26 02:45:19;;;;;;;89.07;65.13;;;6.60;99.90;;;;;;4993088;28;20383;-86
2021/03/26 02:47:51;;;;;;;86.40;62.43;;;6.60;99.90;;;;;;5010271;28;20379;-84
2021/03/26 02:51:11;;;;;;;92.20;65.90;;;6.70;99.90;;;;;;4992867;28;20890;-86
2021/03/26 02:54:07;;;;;;;92.70;66.57;;;6.70;99.90;;;;;;4930913;29;20394;-87
2021/03/26 02:56:36;;;;;;;87.75;63.83;;;6.80;99.90;;;;;;4992224;28;20379;-85
2021/03/26 02:59:21;;;;;;;88.63;65.57;;;6.80;99.90;;;;;;5010037;28;20403;-87
2021/03/26 03:01:52;;;;;;;94.93;66.43;;;6.90;99.90;;;;;;5010396;28;20402;-88
2021/03/26 03:04:40;;;;;;;87.40;63.55;;;6.90;99.90;;;;;;4992646;28;20390;-85
2021/03/26 03:07:19;;;;;;;91.25;64.45;;;6.90;99.90;;;;;;5010711;28;20942;-86
2021/03/26 03:09:48;;;;;;;77.72;58.30;;;6.90;99.90;;;;;;5014023;28;20378;-90
2021/03/26 03:12:23;;;;;;;83.88;61.58;;;6.90;99.90;;;;;;5014110;28;20371;-87
2021/03/26 03:14:57;;;;;;;85.70;63.17;;;7.00;99.90;;;;;;5013738;28;20382;-86
2021/03/26 03:17:28;;;;;;;86.47;62.22;;;7.00;99.90;;;;;;4996013;28;20403;-85
2021/03/26 03:20:16;;;;;;;89.88;63.83;;;6.90;99.90;;;;;;4995987;28;20391;-86
2021/03/26 03:22:50;;;;;;;88.07;62.75;;;6.90;99.90;;;;;;4995772;28;20768;-87
2021/03/26 03:25:20;;;;;;;94.22;68.03;;;6.80;99.90;;;;;;4996268;28;20383;-86
2021/03/26 03:28:17;;;;;;;87.80;64.20;;;6.80;99.90;;;;;;5013172;28;20376;-84
2021/03/26 03:30:47;;;;;;;93.22;65.50;;;6.80;99.90;;;;;;5013420;28;20932;-85
2021/03/26 03:33:54;;;;;;;87.90;62.80;;;6.90;99.90;;;;;;4996191;28;20946;-85
2021/03/26 03:36:31;;;;;;;83.60;61.85;;;6.80;99.90;;;;;;4969784;28;20494;-87
2021/03/26 03:39:08;;;;;;;85.35;62.53;;;6.90;99.90;;;;;;4995771;28;20972;-86
2021/03/26 03:41:39;;;;;;;79.38;58.92;;;6.90;99.90;;;;;;4995762;28;20442;-88
2021/03/26 03:44:11;;;;;;;79.68;57.97;;;6.90;99.90;;;;;;4995870;28;20395;-85
2021/03/26 03:46:50;;;;;;;82.78;60.55;;;6.90;99.90;;;;;;4995854;28;20422;-87
2021/03/26 03:49:31;;;;;;;74.50;55.83;;;6.90;99.90;;;;;;4995725;28;20394;-89
2021/03/26 03:52:28;;;;;;;75.00;56.03;;;7.00;99.90;;;;;;4995611;28;20403;-87
2021/03/26 03:55:04;;;;;;;79.85;59.53;;;7.00;99.90;;;;;;5013261;28;20421;-87
2021/03/26 03:57:39;;;;;;;89.78;63.70;;;7.10;99.90;;;;;;4995158;28;20419;-88
2021/03/26 04:00:17;;;;;;;83.43;59.75;;;7.10;99.90;;;;;;4995368;28;20399;-89
2021/03/26 04:02:46;;;;;;;76.20;56.38;;;7.10;99.90;;;;;;5012931;28;20384;-86
2021/03/26 04:05:28;;;;;;;82.47;58.95;;;7.10;99.90;;;;;;5012838;28;20892;-88
2021/03/26 04:08:05;;;;;;;89.70;64.07;;;7.10;99.90;;;;;;4990294;28;20383;-89
2021/03/26 04:10:41;;;;;;;84.68;62.80;;;7.20;99.90;;;;;;4995317;28;20387;-84
2021/03/26 04:13:18;;;;;;;88.95;62.47;;;7.20;99.90;;;;;;4995406;28;20380;-87
2021/03/26 04:15:53;;;;;;;81.43;58.83;;;7.20;99.90;;;;;;4994749;28;20440;-88
2021/03/26 04:18:25;;;;;;;85.72;59.85;;;7.20;99.90;;;;;;5011370;28;20407;-83
2021/03/26 04:20:57;;;;;;;82.13;59.30;;;7.30;99.90;;;;;;5011815;28;20387;-86
2021/03/26 04:23:30;;;;;;;82.38;58.05;;;7.30;99.90;;;;;;4994672;28;20387;-84
2021/03/26 04:26:24;;;;;;;85.30;60.58;;;7.30;99.90;;;;;;4994748;28;20375;-85
2021/03/26 04:29:15;;;;;;;85.38;58.95;;;7.30;99.90;;;;;;4988494;28;20379;-85
2021/03/26 04:31:45;;;;;;;81.97;59.78;;;7.30;99.90;;;;;;5014981;28;20409;-83
2021/03/26 04:34:13;;;;;;;87.95;61.47;;;7.30;99.90;;;;;;4989574;28;20399;-84
2021/03/26 04:36:52;;;;;;;83.97;60.08;;;7.40;99.90;;;;;;5014596;28;20476;-84
2021/03/26 04:39:25;;;;;;;90.88;64.63;;;7.40;99.90;;;;;;4994388;28;20855;-84
2021/03/26 04:41:54;;;;;;;85.25;60.95;;;7.40;99.90;;;;;;4994541;28;20892;-88
2021/03/26 04:44:26;;;;;;;95.38;65.00;;;7.40;99.90;;;;;;5011795;28;20387;-84
2021/03/26 04:47:07;;;;;;;91.20;65.18;;;7.40;99.90;;;;;;4994233;28;20402;-86
2021/03/26 04:49:39;;;;;;;88.10;63.00;;;7.40;99.90;;;;;;4994218;28;20387;-86
2021/03/26 04:52:14;;;;;;;85.82;61.38;;;7.40;99.90;;;;;;4994292;28;20465;-89
2021/03/26 04:55:12;;;;;;;90.25;63.92;;;7.40;99.90;;;;;;5011209;28;20395;-86
2021/03/26 04:57:44;;;;;;;99.28;68.82;;;7.40;99.90;;;;;;4993533;28;20468;-86
2021/03/26 05:00:26;;;;;;;116.10;77.30;;;7.40;99.90;;;;;;4994160;28;20387;-87
2021/03/26 05:03:05;;;;;;;109.93;77.38;;;7.30;99.90;;;;;;5011426;28;20375;-87
2021/03/26 05:05:35;;;;;;;109.32;75.97;;;7.20;99.90;;;;;;4994099;28;20456;-86
2021/03/26 05:08:05;;;;;;;102.80;71.05;;;7.30;99.90;;;;;;5011266;28;20481;-87
2021/03/26 05:10:34;;;;;;;107.35;74.15;;;7.30;99.90;;;;;;4993802;28;20801;-85
2021/03/26 05:13:14;;;;;;;92.63;65.80;;;7.30;99.90;;;;;;5011441;28;20378;-87
2021/03/26 05:16:06;;;;;;;98.88;66.57;;;7.40;99.90;;;;;;4993838;28;20379;-85
2021/03/26 05:18:44;;;;;;;103.45;71.55;;;7.50;99.90;;;;;;4959283;28;20438;-86
2021/03/26 05:21:40;;;;;;;109.20;76.18;;;7.40;99.90;;;;;;4993854;28;20406;-87
2021/03/26 05:24:21;;;;;;;113.75;75.93;;;7.50;99.90;;;;;;4993738;28;20386;-85
2021/03/26 05:26:47;;;;;;;101.13;71.40;;;7.40;99.90;;;;;;4993864;28;20391;-88
2021/03/26 05:29:12;;;;;;;106.60;75.85;;;7.40;99.90;;;;;;4993442;28;20380;-87
2021/03/26 05:31:59;;;;;;;123.95;82.05;;;7.40;99.90;;;;;;4993196;28;20409;-87
2021/03/26 05:34:43;;;;;;;120.72;78.85;;;7.50;99.90;;;;;;5010916;28;20382;-87
2021/03/26 05:37:24;;;;;;;106.70;72.43;;;7.60;99.90;;;;;;4993053;28;20522;-87
2021/03/26 05:40:00;;;;;;;108.07;75.10;;;7.60;99.90;;;;;;5010932;28;20371;-85
2021/03/26 05:43:00;;;;;;;98.88;69.75;;;7.70;99.90;;;;;;4993238;28;20873;-86
2021/03/26 05:45:38;;;;;;;114.60;79.10;;;7.60;99.90;;;;;;5005942;28;20402;-85
2021/03/26 05:48:10;;;;;;;117.23;78.33;;;7.60;99.90;;;;;;4992793;28;20480;-84
2021/03/26 05:51:14;;;;;;;111.72;76.60;;;7.70;99.90;;;;;;4993179;28;20434;-87
2021/03/26 05:54:01;;;;;;;96.32;69.63;;;7.70;99.90;;;;;;4992770;28;20395;-85
2021/03/26 05:56:39;;;;;;;99.32;70.65;;;7.80;99.90;;;;;;5010790;28;20386;-83
2021/03/26 05:59:24;;;;;;;101.88;70.80;;;7.90;99.90;;;;;;4993083;28;20415;-87
2021/03/26 06:02:23;;;;;;;98.93;69.30;;;8.00;99.90;;;;;;4992961;28;20442;-87
2021/03/26 06:05:18;;;;;;;101.32;71.30;;;8.10;99.90;;;;;;5010710;28;20383;-87
2021/03/26 06:08:15;;;;;;;92.00;68.03;;;8.20;99.90;;;;;;5010358;28;20376;-85
2021/03/26 06:10:48;;;;;;;86.43;63.55;;;8.30;99.90;;;;;;4993065;28;20884;-85
2021/03/26 06:13:39;;;;;;;92.03;66.30;;;8.40;99.90;;;;;;4992695;28;20873;-85
2021/03/26 06:16:23;;;;;;;94.47;68.53;;;8.40;99.90;;;;;;4992804;28;20419;-84
2021/03/26 06:19:32;;;;;;;89.45;65.90;;;8.50;99.90;;;;;;4992530;28;20490;-86
2021/03/26 06:22:24;;;;;;;100.28;71.07;;;8.60;99.90;;;;;;4992995;28;20391;-85
2021/03/26 06:25:08;;;;;;;92.63;65.22;;;8.60;99.90;;;;;;5010458;28;20824;-83
2021/03/26 06:27:43;;;;;;;95.25;69.18;;;8.70;99.90;;;;;;4992757;28;20387;-86
2021/03/26 06:30:38;;;;;;;117.30;83.93;;;8.80;99.90;;;;;;4993341;28;20469;-85
2021/03/26 06:33:36;;;;;;;122.63;93.83;;;9.00;99.90;;;;;;4991546;28;20905;-85
2021/03/26 06:36:20;;;;;;;118.82;89.57;;;9.20;99.90;;;;;;4992757;28;20758;-86
2021/03/26 06:39:05;;;;;;;121.20;95.22;;;9.40;99.90;;;;;;4992307;28;20399;-87
2021/03/26 06:42:00;;;;;;;112.95;84.68;;;9.50;99.90;;;;;;5010534;28;20437;-86
2021/03/26 06:45:02;;;;;;;106.83;76.63;;;9.70;99.90;;;;;;5014122;28;20405;-85
2021/03/26 06:48:06;;;;;;;96.20;70.90;;;9.70;99.90;;;;;;5014274;28;20386;-87
2021/03/26 06:51:01;;;;;;;104.63;74.70;;;9.90;99.90;;;;;;5014959;28;20382;-83
2021/03/26 06:53:31;;;;;;;100.90;75.40;;;10.00;99.90;;;;;;4996655;28;20937;-88
2021/03/26 06:56:33;;;;;;;95.88;69.30;;;10.10;99.90;;;;;;5014257;28;20442;-89
2021/03/26 06:59:14;;;;;;;106.30;74.57;;;10.20;99.90;;;;;;5013993;28;20446;-86
2021/03/26 07:02:18;;;;;;;101.65;72.88;;;10.30;99.90;;;;;;5013961;28;20375;-88
2021/03/26 07:05:08;;;;;;;99.22;71.97;;;10.50;99.90;;;;;;4934569;29;20402;-84
2021/03/26 07:07:55;;;;;;;96.20;71.07;;;10.70;99.90;;;;;;4934344;29;20382;-85
2021/03/26 07:10:37;;;;;;;100.68;70.40;;;10.90;99.90;;;;;;4993955;28;20524;-89
2021/03/26 07:13:21;;;;;;;97.30;69.63;;;11.10;99.90;;;;;;5013655;28;20375;-84
2021/03/26 07:16:24;;;;;;;100.72;72.47;;;11.30;99.90;;;;;;4996158;28;20438;-86
2021/03/26 07:19:18;;;;;;;100.47;72.77;;;11.30;99.90;;;;;;4988893;28;20438;-86
2021/03/26 07:21:54;;;;;;;97.25;69.53;;;11.40;99.90;;;;;;4993948;28;20415;-85
2021/03/26 07:25:08;;;;;;;95.75;69.97;;;11.70;99.90;;;;;;5003684;28;20470;-85
2021/03/26 07:27:49;;;;;;;93.32;67.85;;;11.90;99.90;;;;;;4982655;28;20776;-82
2021/03/26 07:30:47;;;;;;;98.03;68.43;;;12.10;99.90;;;;;;5012484;28;20486;-87
2021/03/26 07:33:28;;;;;;;89.38;65.55;;;12.20;99.90;;;;;;4991302;28;20403;-85
2021/03/26 07:36:22;;;;;;;95.60;66.68;;;12.30;99.90;;;;;;5012272;28;20474;-82
2021/03/26 07:39:03;;;;;;;94.25;66.07;;;12.50;99.90;;;;;;4995522;28;20925;-85
2021/03/26 07:41:48;;;;;;;95.35;69.78;;;12.60;99.90;;;;;;5012982;28;20395;-83
2021/03/26 07:44:40;;;;;;;93.10;66.57;;;12.60;99.90;;;;;;5010481;28;20390;-89
2021/03/26 07:47:24;;;;;;;90.18;66.25;;;12.60;99.90;;;;;;4995430;28;20451;-86
2021/03/26 07:50:27;;;;;;;92.35;66.90;;;12.70;99.90;;;;;;5018145;28;20423;-83
2021/03/26 07:53:34;;;;;;;84.10;63.85;;;12.70;99.90;;;;;;4996972;28;21205;-87
2021/03/26 07:56:25;;;;;;;83.50;60.75;;;12.80;99.90;;;;;;4998710;28;20395;-83
2021/03/26 07:59:23;;;;;;;91.20;66.57;;;13.00;99.90;;;;;;5017118;28;20407;-86
2021/03/26 08:02:11;;;;;;;95.60;67.35;;;13.10;99.90;;;;;;4997979;28;20483;-85
2021/03/26 08:04:56;;;;;;;89.78;66.32;;;13.20;99.90;;;;;;4984960;28;20835;-87
2021/03/26 08:07:54;;;;;;;94.35;67.25;;;13.40;99.90;;;;;;5015786;28;20430;-84
2021/03/26 08:10:34;;;;;;;83.53;62.75;;;13.50;99.90;;;;;;4996802;28;20426;-86
2021/03/26 08:13:18;;;;;;;88.13;64.57;;;14.00;99.90;;;;;;5017186;28;20943;-88
2021/03/26 08:15:49;;;;;;;84.87;62.33;;;14.30;99.90;;;;;;5015937;28;20397;-87
2021/03/26 08:18:41;;;;;;;83.60;62.33;;;14.60;99.90;;;;;;5017863;28;20406;-89
2021/03/26 08:21:15;;;;;;;86.57;63.30;;;14.60;99.90;;;;;;5017665;28;20489;-83
2021/03/26 08:24:12;;;;;;;86.18;62.42;;;14.40;99.90;;;;;;4999338;28;20391;-85
2021/03/26 08:26:54;;;;;;;85.78;64.82;;;14.30;99.90;;;;;;5004438;28;20412;-86
2021/03/26 08:29:47;;;;;;;83.07;61.28;;;14.10;99.90;;;;;;5016970;28;20395;-85
2021/03/26 08:32:36;;;;;;;88.30;64.57;;;14.00;99.90;;;;;;4998569;28;20406;-86
2021/03/26 08:35:47;;;;;;;88.35;66.07;;;13.90;99.90;;;;;;5014216;28;20392;-82
2021/03/26 08:38:34;;;;;;;89.38;65.82;;;13.70;99.90;;;;;;5015249;28;20408;-87
2021/03/26 08:41:05;;;;;;;85.82;64.03;;;13.40;99.90;;;;;;4997208;28;20403;-85
2021/03/26 08:43:33;;;;;;;90.47;66.90;;;13.40;99.90;;;;;;4993059;28;20478;-85
2021/03/26 08:46:14;;;;;;;95.18;68.05;;;13.20;99.90;;;;;;5015658;28;20470;-83
2021/03/26 08:49:03;;;;;;;86.93;63.63;;;13.10;99.90;;;;;;5016584;28;20960;-88
2021/03/26 08:52:12;;;;;;;89.05;67.47;;;13.10;99.90;;;;;;5016546;28;20389;-84
2021/03/26 08:55:03;;;;;;;87.95;66.55;;;13.20;99.90;;;;;;5017583;28;20414;-85
2021/03/26 08:57:28;;;;;;;81.13;62.47;;;13.30;99.90;;;;;;5015466;28;20424;-85
2021/03/26 09:00:06;;;;;;;90.22;66.63;;;13.50;99.90;;;;;;4995034;28;20483;-82
2021/03/26 09:03:02;;;;;;;90.07;66.25;;;13.70;99.90;;;;;;5014371;28;20442;-83
2021/03/26 09:06:05;;;;;;;93.50;68.33;;;13.80;99.90;;;;;;5016661;28;20385;-85
2021/03/26 09:08:59;;;;;;;88.73;63.77;;;14.00;99.90;;;;;;5017784;28;20415;-85
2021/03/26 09:12:11;;;;;;;89.65;65.13;;;14.30;99.90;;;;;;5015338;28;20445;-86
2021/03/26 09:15:04;;;;;;;84.43;63.28;;;14.60;99.90;;;;;;5011665;28;20436;-83
2021/03/26 09:18:04;;;;;;;84.47;62.30;;;14.90;99.90;;;;;;5017374;28;20415;-85
2021/03/26 09:21:08;;;;;;;87.35;63.22;;;15.20;99.90;;;;;;5014150;28;20487;-85
2021/03/26 09:23:41;;;;;;;82.30;60.28;;;15.50;99.90;;;;;;5015447;28;20393;-84
2021/03/26 09:26:45;;;;;;;85.10;63.65;;;15.70;99.90;;;;;;4996442;28;20395;-87
2021/03/26 09:29:25;;;;;;;83.43;62.87;;;15.60;99.90;;;;;;4996633;28;20434;-87
2021/03/26 09:32:10;;;;;;;77.55;58.03;;;15.50;99.90;;;;;;5016524;28;20400;-86
2021/03/26 09:34:41;;;;;;;83.03;61.10;;;15.20;99.90;;;;;;5016670;28;20389;-85
2021/03/26 09:37:15;;;;;;;82.70;60.83;;;15.20;99.90;;;;;;5016259;28;20472;-84
2021/03/26 09:39:44;;;;;;;82.93;59.75;;;15.00;99.90;;;;;;5015718;28;20391;-86
2021/03/26 09:42:30;;;;;;;82.03;59.55;;;14.80;99.90;;;;;;5016939;28;20407;-86
2021/03/26 09:45:24;;;;;;;82.15;59.30;;;15.00;99.90;;;;;;4995601;28;20406;-89
2021/03/26 09:48:11;;;;;;;77.90;56.92;;;15.20;99.90;;;;;;4984240;28;20753;-83
2021/03/26 09:51:07;;;;;;;78.07;57.47;;;15.50;99.90;;;;;;5014429;28;20417;-82
2021/03/26 09:53:40;;;;;;;79.25;57.75;;;15.70;99.90;;;;;;5013264;28;20383;-85
2021/03/26 09:56:31;;;;;;;76.28;56.97;;;15.80;99.90;;;;;;4994043;28;20476;-88
2021/03/26 09:59:25;;;;;;;72.60;53.80;;;16.10;99.90;;;;;;4965454;28;20438;-84
2021/03/26 10:02:25;;;;;;;79.43;57.33;;;16.40;99.90;;;;;;5015891;28;20365;-82
2021/03/26 10:05:02;;;;;;;70.47;54.05;;;16.10;99.90;;;;;;4998001;28;20515;-84
2021/03/26 10:07:48;;;;;;;72.40;55.58;;;16.20;99.90;;;;;;4992889;28;20389;-82
2021/03/26 10:13:21;;;;;;;73.50;55.25;;;16.90;99.90;;;;;;5017105;28;20409;-82
2021/03/26 10:16:00;;;;;;;72.60;55.75;;;16.90;99.90;;;;;;5017143;28;20416;-84
2021/03/26 10:18:35;;;;;;;75.03;56.57;;;16.60;99.90;;;;;;5020771;28;20417;-82
2021/03/26 10:21:01;;;;;;;75.68;56.50;;;16.60;99.90;;;;;;5002525;28;20835;-84
2021/03/26 10:23:31;;;;;;;70.47;52.73;;;16.40;99.90;;;;;;5020887;28;20462;-85
2021/03/26 10:26:27;;;;;;;76.88;59.08;;;16.20;99.90;;;;;;5020317;28;20412;-85
2021/03/26 10:29:04;;;;;;;75.63;55.35;;;16.00;99.90;;;;;;5020025;28;20365;-83
2021/03/26 10:31:31;;;;;;;76.88;57.25;;;15.90;99.90;;;;;;5019931;28;20927;-81
2021/03/26 10:34:00;;;;;;;76.30;56.25;;;15.80;99.90;;;;;;5020184;28;20401;-85
2021/03/26 10:36:49;;;;;;;74.87;56.63;;;15.90;99.90;;;;;;5020306;28;20905;-84
2021/03/26 10:39:29;;;;;;;75.35;56.17;;;15.80;99.90;;;;;;5016819;28;20403;-83
2021/03/26 10:42:02;;;;;;;71.97;54.17;;;15.60;99.90;;;;;;5002569;28;20414;-84
2021/03/26 10:44:30;;;;;;;72.63;53.67;;;15.50;99.90;;;;;;5021262;28;20525;-83
2021/03/26 10:47:06;;;;;;;74.90;56.50;;;15.60;99.90;;;;;;5019847;28;20796;-84
2021/03/26 10:49:42;;;;;;;77.80;58.67;;;15.70;99.90;;;;;;5020609;28;20377;-83
2021/03/26 10:52:23;;;;;;;72.43;54.75;;;15.70;99.90;;;;;;5019665;28;20388;-84
2021/03/26 10:54:59;;;;;;;74.80;53.47;;;15.80;99.90;;;;;;4999084;28;20417;-83
2021/03/26 10:57:41;;;;;;;70.15;54.30;;;15.90;99.90;;;;;;5019731;28;21096;-84
2021/03/26 11:00:43;;;;;;;72.40;53.95;;;16.10;99.90;;;;;;5020096;28;20379;-82
2021/03/26 11:03:15;;;;;;;73.40;55.58;;;16.30;99.90;;;;;;5017495;28;20402;-84
2021/03/26 11:05:50;;;;;;;63.17;50.43;;;16.50;99.90;;;;;;5019473;28;20870;-82
2021/03/26 11:08:33;;;;;;;71.10;52.67;;;16.70;99.90;;;;;;5019683;28;20696;-86
2021/03/26 11:11:10;;;;;;;71.15;54.05;;;16.80;99.90;;;;;;5019821;28;20403;-83
2021/03/26 11:14:23;;;;;;;72.43;54.22;;;16.70;99.90;;;;;;5019928;28;20377;-84
2021/03/26 11:17:04;;;;;;;72.57;54.03;;;16.60;99.90;;;;;;4999251;28;20488;-81
2021/03/26 11:20:05;;;;;;;70.28;53.83;;;16.70;99.90;;;;;;5020321;28;20438;-86
2021/03/26 11:22:33;;;;;;;71.80;55.73;;;16.80;99.90;;;;;;4991432;28;20418;-82
2021/03/26 11:25:04;;;;;;;68.10;52.50;;;16.70;99.90;;;;;;5013126;28;20395;-83
2021/03/26 11:27:48;;;;;;;76.32;57.10;;;16.90;99.90;;;;;;5017766;28;20440;-82
2021/03/26 11:30:38;;;;;;;73.27;55.37;;;17.10;99.90;;;;;;4996646;28;20407;-82
2021/03/26 11:33:39;;;;;;;67.85;54.03;;;17.30;99.90;;;;;;5018089;28;20548;-85
2021/03/26 11:36:24;;;;;;;73.45;54.67;;;17.40;99.90;;;;;;5018764;28;20505;-81
2021/03/26 11:39:04;;;;;;;73.28;55.33;;;17.60;99.90;;;;;;5017979;28;20418;-81
2021/03/26 11:42:03;;;;;;;69.35;54.70;;;17.70;99.90;;;;;;5019261;28;20386;-82
2021/03/26 11:44:31;;;;;;;69.95;54.83;;;17.70;99.90;;;;;;5018806;28;20437;-81
2021/03/26 11:47:34;;;;;;;74.30;56.33;;;17.70;99.90;;;;;;4998132;28;20957;-81
2021/03/26 11:50:09;;;;;;;71.72;55.92;;;17.80;99.90;;;;;;5018773;28;20383;-83
2021/03/26 11:52:43;;;;;;;74.03;56.95;;;18.10;99.90;;;;;;4999455;28;20395;-84
2021/03/26 11:55:31;;;;;;;65.88;51.67;;;18.20;99.90;;;;;;4998553;28;20388;-82
2021/03/26 11:58:16;;;;;;;67.28;52.35;;;18.40;99.90;;;;;;5018529;28;20401;-80
2021/03/26 12:00:52;;;;;;;71.68;54.03;;;18.30;99.90;;;;;;5019126;28;20421;-82
2021/03/26 12:03:48;;;;;;;69.15;52.92;;;18.10;99.90;;;;;;5019361;28;20381;-84
2021/03/26 12:07:07;;;;;;;69.93;53.85;;;18.10;99.90;;;;;;5018594;28;20383;-84
2021/03/26 12:09:40;;;;;;;67.88;51.78;;;18.20;99.90;;;;;;4926832;29;20386;-81
2021/03/26 12:12:15;;;;;;;68.07;51.25;;;18.40;99.90;;;;;;5001811;28;20431;-82
2021/03/26 12:14:47;;;;;;;67.38;52.95;;;18.60;99.90;;;;;;4996651;28;20400;-83
2021/03/26 12:17:21;;;;;;;68.00;52.20;;;18.70;99.20;;;;;;5018225;28;20380;-81
2021/03/26 12:19:47;;;;;;;68.20;51.40;;;18.40;99.30;;;;;;5018650;28;20391;-81
2021/03/26 12:22:30;;;;;;;71.38;50.92;;;18.50;99.40;;;;;;5000399;28;20387;-81
2021/03/26 12:25:21;;;;;;;68.15;51.55;;;18.50;99.60;;;;;;4997222;28;20555;-80
2021/03/26 12:27:50;;;;;;;69.30;51.77;;;18.70;98.70;;;;;;5017849;28;20395;-83
2021/03/26 12:30:21;;;;;;;71.50;53.53;;;18.70;98.70;;;;;;4994044;28;20494;-83
2021/03/26 12:33:12;;;;;;;71.28;52.20;;;18.50;99.00;;;;;;5018312;28;20891;-83
2021/03/26 12:36:16;;;;;;;71.23;52.00;;;18.10;99.30;;;;;;5018683;28;20369;-83
2021/03/26 12:38:56;;;;;;;66.20;51.80;;;18.10;99.90;;;;;;4969443;28;20424;-83
2021/03/26 12:41:41;;;;;;;71.53;53.60;;;18.30;99.90;;;;;;4995706;28;20968;-81
2021/03/26 12:44:28;;;;;;;69.40;54.03;;;18.30;99.90;;;;;;5017662;28;20824;-85
2021/03/26 12:47:16;;;;;;;68.15;52.28;;;18.20;99.90;;;;;;4989181;28;20450;-81
2021/03/26 12:49:51;;;;;;;63.95;50.45;;;18.30;98.80;;;;;;4998714;28;20387;-81
2021/03/26 12:52:29;;;;;;;68.20;53.57;;;18.10;99.30;;;;;;4994057;28;20461;-81
2021/03/26 12:55:03;;;;;;;67.18;49.63;;;18.00;99.70;;;;;;5010965;28;20399;-82
2021/03/26 12:57:38;;;;;;;69.67;51.43;;;18.00;99.90;;;;;;4992906;28;20399;-85
2021/03/26 13:00:34;;;;;;;65.10;50.53;;;17.80;99.90;;;;;;4993085;28;20399;-82
2021/03/26 13:03:14;;;;;;;66.93;51.65;;;17.80;99.90;;;;;;4998269;28;20376;-81
2021/03/26 13:05:44;;;;;;;67.03;49.93;;;17.70;99.90;;;;;;4992654;28;20422;-83
2021/03/26 13:08:20;;;;;;;63.17;49.40;;;17.90;99.90;;;;;;5010457;28;20482;-82
2021/03/26 13:10:52;;;;;;;60.53;45.85;;;17.90;99.70;;;;;;5010488;28;20394;-83
2021/03/26 13:13:49;;;;;;;68.10;50.03;;;18.30;98.90;;;;;;4992460;28;20486;-83
2021/03/26 13:16:36;;;;;;;64.78;49.67;;;18.40;99.20;;;;;;5006757;28;20437;-81
2021/03/26 13:19:38;;;;;;;72.03;53.20;;;18.40;99.90;;;;;;5014939;28;20430;-82
2021/03/26 13:22:19;;;;;;;63.45;49.30;;;18.20;98.60;;;;;;4984882;28;20428;-82
2021/03/26 13:24:50;;;;;;;70.63;50.30;;;18.20;99.90;;;;;;4993703;28;20395;-83
2021/03/26 13:27:19;;;;;;;61.45;47.22;;;18.00;98.70;;;;;;5008065;28;20406;-82
2021/03/26 13:30:19;;;;;;;61.17;45.08;;;18.00;97.70;;;;;;4993307;28;20406;-81
2021/03/26 13:32:57;;;;;;;65.95;49.45;;;17.80;97.70;;;;;;4946220;28;20868;-86
2021/03/26 13:35:30;;;;;;;64.37;50.30;;;17.90;98.90;;;;;;5010295;28;20399;-78
2021/03/26 13:38:12;;;;;;;68.68;51.20;;;17.70;97.90;;;;;;5011489;28;20461;-80
2021/03/26 13:40:46;;;;;;;65.13;49.17;;;17.40;99.00;;;;;;5007762;28;20383;-81